createdAt,value
2023-05-17T00:02:54.153Z,51.6
2023-05-17T00:08:15.764Z,51.5
2023-05-17T00:13:23.552Z,51.4
2023-05-17T00:19:00.203Z,51.4
2023-05-17T00:24:20.882Z,51.4
2023-05-17T00:30:14.672Z,51.3
2023-05-17T00:35:50.967Z,51.3
2023-05-17T00:41:27.576Z,51.3
2023-05-17T00:47:21.218Z,51.2
2023-05-17T00:52:42.230Z,51.2
2023-05-17T00:58:19.161Z,51.1
2023-05-17T01:04:14.106Z,51.1
2023-05-17T01:10:05.599Z,51.1
2023-05-17T01:15:41.613Z,51
2023-05-17T01:21:21.017Z,50.9
2023-05-17T01:27:11.770Z,50.9
2023-05-17T01:33:03.696Z,50.9
2023-05-17T01:38:11.472Z,50.8
2023-05-17T01:44:03.074Z,50.8
2023-05-17T01:49:54.927Z,50.8
2023-05-17T01:55:48.144Z,50.7
2023-05-17T02:01:08.753Z,50.6
2023-05-17T02:06:46.271Z,50.6
2023-05-17T02:12:09.402Z,50.6
2023-05-17T02:17:29.663Z,50.6
2023-05-17T02:22:51.483Z,50.4
2023-05-17T02:28:29.894Z,50.4
2023-05-17T02:34:06.135Z,50.4
2023-05-17T02:39:42.397Z,50.4
2023-05-17T02:45:20.503Z,50.3
2023-05-17T02:50:56.690Z,50.3
2023-05-17T02:56:34.005Z,50.3
2023-05-17T03:02:12.608Z,50.2
2023-05-17T03:07:49.808Z,50.2
2023-05-17T03:13:25.733Z,50.1
2023-05-17T03:19:04.884Z,50.1
2023-05-17T03:24:56.971Z,50.1
2023-05-17T03:30:33.687Z,50
2023-05-17T03:35:57.147Z,50
2023-05-17T03:41:17.576Z,49.9
2023-05-17T03:46:38.029Z,49.9
2023-05-17T03:51:46.604Z,49.9
2023-05-17T03:57:08.453Z,49.8
2023-05-17T04:02:44.368Z,49.8
2023-05-17T04:08:25.268Z,49.8
2023-05-17T04:14:01.109Z,49.8
2023-05-17T04:19:38.286Z,49.7
2023-05-17T04:25:15.744Z,49.6
2023-05-17T04:30:51.689Z,49.6
2023-05-17T04:36:29.110Z,49.5
2023-05-17T04:42:06.275Z,49.5
2023-05-17T04:47:42.762Z,49.4
2023-05-17T04:53:19.876Z,49.4
2023-05-17T04:58:58.070Z,49.4
2023-05-17T05:04:34.198Z,49.3
2023-05-17T05:10:10.651Z,49.3
2023-05-17T05:15:50.551Z,49.3
2023-05-17T05:21:27.893Z,49.2
2023-05-17T05:26:49.263Z,49.2
2023-05-17T05:32:28.747Z,49.1
2023-05-17T05:38:23.945Z,49.1
2023-05-17T05:43:59.745Z,49.1
2023-05-17T05:49:53.586Z,49
2023-05-17T05:56:00.423Z,49
2023-05-17T06:01:39.151Z,48.9
2023-05-17T06:07:11.498Z,48.9
2023-05-17T06:12:16.839Z,48.9
2023-05-17T06:18:08.539Z,48.8
2023-05-17T06:23:30.977Z,48.8
2023-05-17T06:29:07.676Z,48.8
2023-05-17T06:34:45.483Z,48.7
2023-05-17T06:40:50.137Z,48.7
2023-05-17T06:46:11.841Z,48.6
2023-05-17T06:51:50.788Z,48.6
2023-05-17T06:57:29.096Z,48.6
2023-05-17T07:02:51.196Z,48.5
2023-05-17T07:08:13.245Z,48.4
2023-05-17T07:13:52.888Z,48.4
2023-05-17T07:19:14.829Z,48.4
2023-05-17T07:24:36.241Z,48.4
2023-05-17T07:30:00.307Z,48.3
2023-05-17T07:35:05.442Z,48.3
2023-05-17T07:40:43.148Z,48.3
2023-05-17T07:46:06.141Z,48.3
2023-05-17T07:51:30.109Z,48.2
2023-05-17T07:56:52.131Z,48.2
2023-05-17T08:02:14.358Z,48.1
2023-05-17T08:07:35.001Z,48.1
2023-05-17T08:12:57.288Z,48.1
2023-05-17T08:18:47.345Z,48
2023-05-17T08:24:25.560Z,48
2023-05-17T08:29:46.096Z,47.9
2023-05-17T08:35:34.318Z,47.9
2023-05-17T08:40:40.338Z,47.9
2023-05-17T08:46:18.733Z,47.8
2023-05-17T08:51:43.991Z,47.8
2023-05-17T08:57:05.749Z,47.8
2023-05-17T09:02:39.507Z,47.8
2023-05-17T09:08:21.027Z,47.7
2023-05-17T09:13:42.253Z,47.7
2023-05-17T09:19:18.814Z,47.6
2023-05-17T09:25:07.852Z,47.6
2023-05-17T09:30:42.991Z,47.6
2023-05-17T09:36:21.981Z,47.5
2023-05-17T09:41:44.192Z,47.5
2023-05-17T09:47:20.734Z,47.4
2023-05-17T09:52:41.635Z,47.4
2023-05-17T09:58:18.586Z,47.4
2023-05-17T10:03:55.560Z,47.4
2023-05-17T10:09:35.824Z,47.3
2023-05-17T10:15:14.303Z,47.3
2023-05-17T10:20:36.802Z,47.3
2023-05-17T10:26:12.172Z,47.3
2023-05-17T10:31:02.684Z,47.2
2023-05-17T10:36:19.819Z,47.2
2023-05-17T10:41:52.778Z,47.1
2023-05-17T10:47:17.412Z,47.1
2023-05-17T10:53:06.501Z,47.1
2023-05-17T10:58:39.813Z,47.1
2023-05-17T11:04:03.462Z,47
2023-05-17T11:09:17.720Z,47
2023-05-17T11:14:37.925Z,46.9
2023-05-17T11:20:11.747Z,46.9
2023-05-17T11:25:35.252Z,46.9
2023-05-17T11:30:49.185Z,46.8
2023-05-17T11:36:41.415Z,46.8
2023-05-17T11:42:35.036Z,46.8
2023-05-17T11:48:27.771Z,46.8
2023-05-17T11:54:17.713Z,46.8
2023-05-17T12:00:05.491Z,46.7
2023-05-17T12:05:41.299Z,46.6
2023-05-17T12:11:20.403Z,46.6
2023-05-17T12:16:56.292Z,46.6
2023-05-17T12:22:49.997Z,46.6
2023-05-17T12:28:42.495Z,46.5
2023-05-17T12:34:35.562Z,46.5
2023-05-17T12:40:13.029Z,46.4
2023-05-17T12:46:20.271Z,46.4
2023-05-17T12:51:56.298Z,46.4
2023-05-17T12:57:32.822Z,46.4
2023-05-17T13:03:10.163Z,46.3
2023-05-17T13:09:02.854Z,46.3
2023-05-17T13:14:54.341Z,46.3
2023-05-17T13:20:48.480Z,46.3
2023-05-17T13:26:39.119Z,46.2
2023-05-17T13:32:12.848Z,46.2
2023-05-17T13:37:50.518Z,46.1
2023-05-17T13:43:26.495Z,46.1
2023-05-17T13:48:47.301Z,46.1
2023-05-17T13:54:08.951Z,46
2023-05-17T13:59:45.897Z,45.2
2023-05-17T14:05:07.217Z,44.7
2023-05-17T14:10:47.521Z,44.6
2023-05-17T14:16:22.638Z,44.5
2023-05-17T14:21:44.398Z,44.5
2023-05-17T14:27:21.163Z,44.4
2023-05-17T14:32:41.451Z,44.4
2023-05-17T14:38:02.847Z,44.4
2023-05-17T14:43:31.091Z,44.3
2023-05-17T14:48:51.915Z,44.3
2023-05-17T14:54:13.704Z,44.3
2023-05-17T14:59:20.348Z,44.3
2023-05-17T15:04:49.452Z,44.2
2023-05-17T15:10:10.524Z,44.2
2023-05-17T15:15:31.620Z,44.1
2023-05-17T15:20:54.074Z,44.1
2023-05-17T15:26:47.593Z,44.1
2023-05-17T15:32:25.376Z,44.1
2023-05-17T15:38:02.067Z,44
2023-05-17T15:43:53.159Z,43.9
2023-05-17T15:49:22.633Z,43.9
2023-05-17T15:54:57.943Z,43.9
2023-05-17T16:00:49.919Z,43.9
2023-05-17T16:06:27.188Z,43.9
2023-05-17T16:12:03.014Z,43.8
2023-05-17T16:17:38.521Z,43.8
2023-05-17T16:23:31.664Z,43.8
2023-05-17T16:29:22.282Z,43.7
2023-05-17T16:35:13.595Z,43.7
2023-05-17T16:41:05.821Z,43.6
2023-05-17T16:46:56.386Z,43.6
2023-05-17T16:52:48.424Z,43.6
2023-05-17T16:58:40.691Z,43.5
2023-05-17T17:04:33.203Z,43.5
2023-05-17T17:10:24.460Z,43.4
2023-05-17T17:16:34.033Z,43.4
2023-05-17T17:22:13.044Z,43.4
2023-05-17T17:28:05.063Z,43.3
2023-05-17T17:33:57.717Z,43.3
2023-05-17T17:39:33.310Z,43.3
2023-05-17T17:45:08.827Z,43.3
2023-05-17T17:51:01.476Z,43.2
2023-05-17T17:56:24.125Z,43.2
2023-05-17T18:02:00.746Z,43.1
2023-05-17T18:07:53.162Z,43.1
2023-05-17T18:13:28.416Z,43.1
2023-05-17T18:19:20.238Z,43
2023-05-17T18:24:57.562Z,43
2023-05-17T18:30:45.722Z,42.9
2023-05-17T18:35:54.116Z,42.9
2023-05-17T18:41:31.218Z,42.9
2023-05-17T18:47:08.990Z,42.8
2023-05-17T18:52:44.666Z,42.8
2023-05-17T18:58:21.615Z,42.8
2023-05-17T19:03:27.076Z,42.8
2023-05-17T19:08:48.254Z,42.7
2023-05-17T19:14:25.925Z,42.6
2023-05-17T19:20:03.313Z,42.6
2023-05-17T19:25:40.273Z,42.6
2023-05-17T19:31:35.731Z,42.6
2023-05-17T19:36:41.956Z,42.5
2023-05-17T19:42:17.738Z,42.5
2023-05-17T19:47:56.420Z,42.4
2023-05-17T19:53:17.753Z,42.4
2023-05-17T19:59:11.176Z,42.3
2023-05-17T20:05:04.677Z,42.7
2023-05-17T20:10:41.139Z,43.8
2023-05-17T20:16:33.073Z,44.1
2023-05-17T20:21:56.026Z,44.2
2023-05-17T20:27:33.059Z,44.2
2023-05-17T20:33:10.761Z,44.1
2023-05-17T20:39:03.183Z,44.1
2023-05-17T20:44:57.919Z,44.1
2023-05-17T20:50:49.349Z,44.1
2023-05-17T20:56:53.532Z,44.1
2023-05-17T21:02:29.452Z,44.1
2023-05-17T21:08:21.192Z,44.1
2023-05-17T21:13:57.712Z,44
2023-05-17T21:19:32.678Z,44
2023-05-17T21:24:56.209Z,44
2023-05-17T21:30:35.456Z,43.9
2023-05-17T21:36:27.931Z,43.9
2023-05-17T21:42:19.718Z,43.9
2023-05-17T21:48:12.189Z,43.9
2023-05-17T21:54:03.028Z,43.9
2023-05-17T21:59:59.608Z,43.8
2023-05-17T22:05:37.495Z,43.8
2023-05-17T22:11:15.215Z,43.8
2023-05-17T22:17:06.529Z,43.8
2023-05-17T22:22:40.412Z,43.8
2023-05-17T22:28:31.426Z,43.8
2023-05-17T22:34:22.911Z,43.7
2023-05-17T22:39:59.115Z,43.7
2023-05-17T22:45:34.492Z,43.7
2023-05-17T22:51:26.041Z,43.6
2023-05-17T22:57:17.955Z,43.6
2023-05-17T23:02:38.093Z,43.6
2023-05-17T23:07:59.586Z,43.6
2023-05-17T23:13:23.075Z,43.6
2023-05-17T23:18:58.760Z,43.6
2023-05-17T23:24:35.393Z,43.5
2023-05-17T23:30:12.026Z,43.5
2023-05-17T23:35:33.250Z,43.5
2023-05-17T23:41:09.681Z,43.4
2023-05-17T23:46:46.955Z,43.4
2023-05-17T23:52:38.537Z,43.4
2023-05-17T23:58:15.049Z,43.4
